AirNav   ProFlight Series 2 Aviation Headset
 
 411 users online  

KMTP Montauk Airport
Montauk, New York, USA

GOING TO MONTAUK?


FAA INFORMATION EFFECTIVE 13 AUGUST 2020

Location

FAA Identifier: MTP
Lat/Long: 41-04-36.0000N 071-55-13.7000W
41-04.600000N 071-55.228333W
41.0766667,-71.9204722
(estimated)
Elevation: 6.8 ft. / 2.1 m (surveyed)
Variation: 15W (2000)
From city: 3 miles NE of MONTAUK, NY
Time zone: UTC -4 (UTC -5 during Standard Time)
Zip code: 11954

Airport Operations

Airport use: Open to the public
Activation date: 04/1958
Control tower: no
ARTCC: BOSTON CENTER
FSS: NEW YORK FLIGHT SERVICE STATION
NOTAMs facility: MTP (NOTAM-D service available)
Attendance: APR-OCT DAYLIGHT HOURS
Wind indicator: lighted
Segmented circle: no
Lights: ACTVT MIRL & PAPI RWY 06/24 - 121.7.
Landing fee: yes

Airport Communications

CTAF/UNICOM: 122.7
NEW YORK APPROACH: 125.975
PROVIDENCE DEPARTURE: 125.75
WX ASOS at GON (16 nm N): PHONE 860-449-8921
WX AWOS-3PT at BID (16 nm E): 134.775 (401-466-5495)
WX AWOS-3PT at HTO (17 nm SW): 118.075 (631-537-2527)
WX ASOS at WST (17 nm N): 132.375 (401-596-9543)
  • DEP SVC PRVDD BY BOSTON ARTCC ON FREQS 124.85/269.2(WOODSTOCK RCAG) WHEN PROVIDENCE DEP CTL CLSD.

Nearby radio navigation aids

VOR radial/distance  VOR name  Freq  Var
GONr173/16.3GROTON VOR/DME110.8514W
SEYr266/16.5SANDY POINT VOR/DME117.8015W
HTOr075/20.3HAMPTON VORTAC113.6013W
ORWr187/29.0NORWICH VOR/DME110.0014W
MADr125/37.6MADISON VOR/DME110.4013W

Airport Services

Parking: tiedowns
Airframe service: NONE
Powerplant service: NONE
Bottled oxygen: NONE
Bulk oxygen: NONE

Runway Information

Runway 6/24

Dimensions: 3246 x 75 ft. / 989 x 23 m
Surface: asphalt, in good condition
Runway edge lights: medium intensity
RUNWAY 6  RUNWAY 24
Latitude: 41-04.418512N41-04.782872N
Longitude: 071-55.486010W071-54.969098W
Elevation: 6.8 ft.4.3 ft.
Traffic pattern: leftright
Runway heading: 062 magnetic, 047 true242 magnetic, 227 true
Displaced threshold: 302 ft.668 ft.
Markings: nonprecision, in good conditionnonprecision, in good condition
Visual slope indicator: 2-light PAPI on right (3.83 degrees glide path)
PAPI RWY 6 TEMP OTS.
2-light PAPI on left (4.00 degrees glide path)
Touchdown point: yes, no lightsyes, no lights
Obstructions: 28 ft. trees, 200 ft. from runway, 66 ft. left of centerline
RWY 06, 5 FT FENCE, 200 FT FM THLD, 200 FT RT. 15 FT TREES, 117 FT FM THLD, 205 FT RT. 30 FT TREES, 0-200 FT FM THLD, 50 FT - 70 FT LT.
35 ft. hill, 200 ft. from runway, 30 ft. right of centerline
RWY 24, 25FT - 35FT TREES AND TERRAIN, 0-200 FT FM RWY, 200 FT RT TO 250 FT LT.

Airport Ownership and Management from official FAA records

Ownership: Privately-owned
Owner: MONTAUK AIRPORT INC
P.O. BOX 1477
MONTAUK, L.I., NY 11954
Phone 631-668-2484
Manager: HELEN GIL
BOX 1477
MONTAUK, L.I., NY 11954
Phone 631-668-3738

Airport Operational Statistics

Aircraft based on the field: 4
Single engine airplanes: 3
Multi engine airplanes: 1
    
Aircraft operations: avg 83/day *
62% local general aviation
22% transient general aviation
16% air taxi
* for 12-month period ending 18 June 2019

Additional Remarks

A30A-24 NO TOUCH AND GO.
ARPT CLSD TO HEL OPNS SS-SR; PPR.
FOR CD CTC PROVIDENCE APCH AT 401-738-8945, WHEN APCH CLSD CTC BOSTON ARTCC AT 603-879-6859.
NOISE ABATEMENT, RWY 24 DEP, RT ASAP.
DEER ON OR INVOF ARPT.
ARPT CLSD TO JET ACFT EXCEPT PPR CALL AMGR (631) 668-3738.
HELICOPTERS CALL FOR PRIOR PERMISSION TO LND ON RAMP AREA.
RWY 06; 18 FT BRUSH ALONG RWY EDGE 90 FT L; 30 FT POLE 400 FT FROM THLD 79 FT L; 31 FT POLE 216 FT FROM RWY THLD 233 FT R.
RWY 06; 26 FT TREE 382 FT FROM THLD 21 FT L; 25-32 FT TREES 180-255 FT FROM THLD 60-90 FT L; 11-17 FT TREES 225-270 FT FROM THLD 4-95 FT R.
RWY 24; 21 FT BRUSH ALONG RWY EDGE 87 FT R.
NO TOUCH AND GOES RWY 06/24.

Instrument Procedures

NOTE: All procedures below are presented as PDF files. If you need a reader for these files, you should download the free Adobe Reader.

NOT FOR NAVIGATION. Please procure official charts for flight.
FAA instrument procedures published for use from 13 August 2020 at 0901Z to 10 September 2020 at 0900Z.

 
IAPs - Instrument Approach Procedures
RNAV (GPS) RWY 06   download (255KB)
RNAV (GPS) RWY 24   download (252KB)
VOR RWY 06   download (267KB)
NOTE: Special Take-Off Minimums/Departure Procedures apply   download (150KB)

Other nearby airports with instrument procedures:

0B8 - Elizabeth Field Airport (12 nm NW)
KGON - Groton-New London Airport (16 nm N)
KBID - Block Island State Airport (16 nm E)
KHTO - East Hampton Airport (17 nm SW)
KWST - Westerly State Airport (17 nm N)
 
Loc | Ops | Rwys | IFR | FBO | Links
Com | Nav | Svcs | Stats | Notes
Area around KMTP (Montauk Airport)
 
Road maps at: MapQuest Bing Google
 
Aerial photo
WARNING: Photo may not be current or correct
Aerial photo of KMTP (Montauk Airport)
Photo by Timothy J. Quill
Photo taken 06-Jul-2019
looking northeast.

Do you have a better or more recent aerial photo of Montauk Airport that you would like to share? If so, please send us your photo.

 
Sectional chart

 
Airport distance calculator
Flying to Montauk Airport? Find the distance to fly.

From to KMTP

Sunrise and sunset
Times for 15-Aug-2020
 Local
(UTC-4)
 Zulu
(UTC)
Morning civil twilight05:3009:30
Sunrise05:5909:59
Sunset19:4523:45
Evening civil twilight20:1400:14

Current date and time
Zulu (UTC)  15-Aug-2020 09:03:30
Local (UTC-4)  15-Aug-2020 05:03:30
 
METAR
KMTP 150854Z AUTO 03008KT 21/17 A2997 RMK AO1 SLP147 T02110167 53001
KGON 
16nm N 
150856Z AUTO 01009KT 10SM CLR 19/14 A2996 RMK AO2 SLP143 T01890144 53000
KHTO 
17nm SW 
SuperAWOS
150835Z AUTO 01004KT 10SM CLR 20/15 A2995 RMK AO2 LTG DSNT E T01950152
KBID 
17nm E 
150856Z AUTO 04013G18KT 10SM CLR 20/17 A2996 RMK AO2 SLP144 T02000172 52001
KWST 
17nm N 
150853Z AUTO 36007KT 10SM CLR 19/14 A2997 RMK AO2 SLP147 T01890139 53001 $
TAF
KGON 
16nm N 
150830Z 1509/1606 01012KT P6SM BKN250 FM151200 02015G20KT P6SM BKN250 FM151500 04019G25KT P6SM SCT030 BKN250 FM152100 05018G24KT P6SM BKN025 FM160000 04012KT P6SM BKN020
NOTAMs
Click for the latest NOTAMs
NOTAMs are issued by the DoD/FAA and will open in a separate window not controlled by AirNav.

 

 
 

FBO, Fuel Providers, and Aircraft Ground Support

  
 Business Name 
 
 Contact 
 
 Services / Description 
 
Fuel Prices
 
Comments
  
Montauk Airport 631-668-3738
no information available

If you are affiliated with Montauk Airport and would like to show here your services, contact info, web link, logo, and more, click here
no fuel
 
   7 read write
Update Fuel Prices
 

Where to Eat: Catering, Restaurants, Food shops

  
 Business Name 
 
 Contact 
 
 Services / Description 
 
Distance
 
Comments
  
Rick's Crabby Cowboy Cafe 631-668-3200
no information available

If you are affiliated with Rick's Crabby Cowboy Cafe and would like to show here your services, contact info, web link, logo, and more, click here
0.1 miles  
   1 read write
 

Would you like to see your business listed on this page?

 If your business provides an interesting product or service to pilots, flight crews, aircraft, or users of the Montauk Airport, you should consider listing it here.  To start the listing process, click on the button below
 
Add a business
 

Other Pages about Montauk Airport

www.themontaukairport.com
 
Update a link
 
Copyright © AirNav, LLC. All rights reserved. Privacy Policy  Contact